Metar z pełnej godziny Komunikat METAR ze strony awiacja.imgw.pl Metar G00 EPWR METAR EPWR 162200Z 14005KT CAVOK M02/M05 Q1017 =